createdAt,value
2023-05-19T00:02:09.006Z,100.00
2023-05-19T00:04:36.396Z,100.00
2023-05-19T00:07:02.853Z,98.27
2023-05-19T00:09:29.257Z,96.66
2023-05-19T00:11:56.088Z,94.04
2023-05-19T00:14:22.441Z,91.88
2023-05-19T00:16:48.874Z,97.93
2023-05-19T00:19:16.189Z,96.32
2023-05-19T00:21:42.363Z,96.32
2023-05-19T00:24:08.484Z,90.54
2023-05-19T00:26:34.688Z,88.65
2023-05-19T00:29:00.856Z,89.11
2023-05-19T00:31:27.084Z,90.47
2023-05-19T00:33:53.217Z,88.78
2023-05-19T00:36:19.321Z,86.77
2023-05-19T00:38:45.463Z,87.78
2023-05-19T00:41:11.612Z,83.51
2023-05-19T00:43:37.751Z,84.63
2023-05-19T00:46:03.938Z,89.07
2023-05-19T00:48:30.230Z,86.66
2023-05-19T00:51:03.483Z,93.60
2023-05-19T00:53:30.843Z,95.68
2023-05-19T00:55:57.690Z,95.46
2023-05-19T00:58:28.414Z,99.70
2023-05-19T01:01:02.523Z,91.99
2023-05-19T01:03:30.917Z,91.98
2023-05-19T01:06:00.930Z,89.64
2023-05-19T01:08:28.454Z,93.70
2023-05-19T01:10:54.655Z,100.00
2023-05-19T01:13:20.947Z,100.00
2023-05-19T01:16:01.019Z,100.00
2023-05-19T01:18:43.939Z,93.72
2023-05-19T01:21:16.357Z,92.24
2023-05-19T01:23:53.524Z,91.02
2023-05-19T01:26:53.510Z,93.51
2023-05-19T01:29:22.534Z,90.52
2023-05-19T01:31:49.768Z,92.41
2023-05-19T01:34:16.585Z,91.35
2023-05-19T01:36:44.271Z,92.18
2023-05-19T01:39:11.235Z,91.14
2023-05-19T01:41:39.644Z,91.21
2023-05-19T01:44:05.876Z,94.14
2023-05-19T01:46:32.142Z,92.08
2023-05-19T01:48:58.545Z,91.91
2023-05-19T01:51:24.682Z,92.28
2023-05-19T01:53:50.855Z,95.13
2023-05-19T01:56:22.767Z,93.45
2023-05-19T01:58:57.481Z,91.90
2023-05-19T02:02:04.804Z,90.75
2023-05-19T02:04:39.258Z,92.86
2023-05-19T02:07:11.710Z,92.50
2023-05-19T02:09:42.260Z,94.98
2023-05-19T02:12:11.265Z,94.55
2023-05-19T02:14:49.476Z,93.16
2023-05-19T02:17:17.513Z,92.00
2023-05-19T02:19:44.118Z,91.15
2023-05-19T02:22:10.246Z,92.34
2023-05-19T02:24:37.016Z,92.05
2023-05-19T02:27:03.363Z,92.90
2023-05-19T02:29:29.469Z,92.00
2023-05-19T02:31:55.693Z,93.31
2023-05-19T02:34:22.267Z,91.97
2023-05-19T02:36:51.584Z,91.69
2023-05-19T02:39:17.767Z,91.28
2023-05-19T02:41:43.904Z,91.80
2023-05-19T02:44:10.015Z,93.00
2023-05-19T02:46:36.222Z,91.56
2023-05-19T02:49:02.442Z,91.35
2023-05-19T02:51:28.595Z,92.06
2023-05-19T02:53:54.795Z,93.64
2023-05-19T02:56:21.133Z,93.47
2023-05-19T02:58:47.387Z,92.47
2023-05-19T03:01:13.557Z,92.16
2023-05-19T03:03:39.894Z,93.49
2023-05-19T03:06:08.008Z,93.75
2023-05-19T03:08:37.979Z,95.59
2023-05-19T03:11:14.779Z,95.23
2023-05-19T03:13:41.167Z,95.07
2023-05-19T03:16:07.550Z,94.61
2023-05-19T03:18:34.261Z,95.43
2023-05-19T03:21:00.372Z,96.41
2023-05-19T03:23:26.649Z,98.23
2023-05-19T03:25:55.726Z,94.75
2023-05-19T03:28:26.560Z,93.90
2023-05-19T03:30:52.905Z,93.83
2023-05-19T03:33:19.334Z,94.09
2023-05-19T03:35:45.805Z,94.28
2023-05-19T03:38:12.012Z,94.63
2023-05-19T03:40:38.216Z,94.71
2023-05-19T03:43:04.410Z,94.88
2023-05-19T03:45:30.641Z,92.86
2023-05-19T03:47:56.897Z,99.24
2023-05-19T03:50:23.207Z,95.51
2023-05-19T03:52:49.435Z,96.26
2023-05-19T03:55:15.711Z,95.10
2023-05-19T03:57:43.637Z,95.24
2023-05-19T04:00:10.627Z,95.30
2023-05-19T04:02:36.835Z,94.96
2023-05-19T04:05:04.447Z,96.61
2023-05-19T04:07:31.033Z,95.41
2023-05-19T04:09:57.174Z,95.41
2023-05-19T04:12:23.313Z,95.79
2023-05-19T04:14:49.425Z,96.71
2023-05-19T04:17:15.555Z,96.71
2023-05-19T04:19:42.881Z,96.75
2023-05-19T04:22:09.017Z,96.86
2023-05-19T04:24:35.487Z,98.26
2023-05-19T04:27:01.819Z,97.70
2023-05-19T04:29:28.848Z,97.68
2023-05-19T04:31:56.510Z,97.69
2023-05-19T04:34:22.598Z,98.67
2023-05-19T04:36:49.780Z,98.40
2023-05-19T04:39:17.189Z,97.40
2023-05-19T04:41:44.172Z,98.08
2023-05-19T04:44:10.426Z,98.83
2023-05-19T04:46:36.685Z,100.00
2023-05-19T04:49:03.012Z,100.00
2023-05-19T04:51:30.737Z,98.81
2023-05-19T04:53:57.316Z,99.14
2023-05-19T04:56:23.494Z,98.33
2023-05-19T04:58:49.982Z,97.70
2023-05-19T05:01:16.231Z,97.58
2023-05-19T05:03:42.823Z,97.44
2023-05-19T05:06:09.041Z,96.96
2023-05-19T05:08:36.655Z,96.50
2023-05-19T05:11:03.395Z,96.13
2023-05-19T05:13:29.861Z,96.58
2023-05-19T05:15:56.350Z,96.25
2023-05-19T05:18:22.841Z,96.09
2023-05-19T05:20:49.321Z,96.91
2023-05-19T05:23:15.959Z,97.99
2023-05-19T05:25:42.959Z,97.76
2023-05-19T05:28:09.242Z,98.48
2023-05-19T05:30:36.004Z,97.50
2023-05-19T05:33:02.427Z,97.15
2023-05-19T05:35:28.727Z,96.74
2023-05-19T05:37:55.678Z,96.67
2023-05-19T05:40:21.847Z,95.06
2023-05-19T05:42:47.981Z,93.96
2023-05-19T05:45:14.138Z,94.24
2023-05-19T05:47:40.885Z,93.41
2023-05-19T05:50:08.917Z,91.32
2023-05-19T05:52:36.554Z,91.85
2023-05-19T05:55:04.349Z,89.01
2023-05-19T05:57:30.444Z,89.67
2023-05-19T05:59:56.910Z,92.97
2023-05-19T06:02:23.140Z,89.83
2023-05-19T06:04:49.332Z,87.08
2023-05-19T06:07:15.469Z,87.28
2023-05-19T06:09:41.568Z,87.13
2023-05-19T06:12:07.862Z,86.31
2023-05-19T06:14:33.976Z,92.25
2023-05-19T06:17:00.135Z,92.01
2023-05-19T06:19:26.292Z,89.73
2023-05-19T06:21:52.430Z,86.40
2023-05-19T06:24:18.585Z,87.86
2023-05-19T06:26:44.794Z,87.09
2023-05-19T06:29:10.875Z,88.88
2023-05-19T06:31:37.008Z,89.51
2023-05-19T06:34:03.123Z,92.96
2023-05-19T06:36:29.268Z,86.85
2023-05-19T06:38:55.636Z,82.84
2023-05-19T06:41:21.790Z,82.79
2023-05-19T06:43:47.927Z,83.61
2023-05-19T06:46:14.221Z,83.65
2023-05-19T06:48:41.754Z,85.83
2023-05-19T06:51:09.550Z,87.80
2023-05-19T06:53:35.910Z,81.51
2023-05-19T06:56:02.038Z,85.85
2023-05-19T06:58:28.238Z,85.95
2023-05-19T07:00:54.359Z,82.09
2023-05-19T07:03:20.660Z,86.54
2023-05-19T07:05:47.230Z,87.05
2023-05-19T07:08:13.372Z,83.07
2023-05-19T07:10:39.493Z,83.35
2023-05-19T07:13:05.815Z,77.64
2023-05-19T07:15:32.019Z,80.23
2023-05-19T07:17:58.205Z,79.38
2023-05-19T07:20:24.359Z,83.16
2023-05-19T07:22:50.518Z,76.76
2023-05-19T07:25:16.760Z,78.27
2023-05-19T07:27:42.937Z,80.52
2023-05-19T07:30:09.421Z,78.20
2023-05-19T07:32:35.634Z,75.13
2023-05-19T07:35:02.174Z,75.68
2023-05-19T07:37:28.314Z,70.25
2023-05-19T07:39:54.496Z,74.92
2023-05-19T07:42:20.767Z,73.91
2023-05-19T07:44:46.874Z,74.35
2023-05-19T07:47:12.985Z,72.54
2023-05-19T07:49:39.145Z,72.04
2023-05-19T07:52:05.575Z,68.53
2023-05-19T07:54:31.761Z,69.34
2023-05-19T07:56:57.895Z,69.87
2023-05-19T07:59:24.069Z,68.45
2023-05-19T08:01:50.353Z,69.21
2023-05-19T08:04:16.694Z,64.73
2023-05-19T08:06:43.762Z,67.08
2023-05-19T08:09:10.287Z,63.75
2023-05-19T08:11:36.487Z,64.29
2023-05-19T08:14:02.814Z,63.65
2023-05-19T08:16:29.131Z,60.83
2023-05-19T08:18:55.347Z,60.09
2023-05-19T08:21:21.741Z,61.59
2023-05-19T08:23:47.890Z,59.49
2023-05-19T08:26:14.073Z,59.51
2023-05-19T08:28:40.164Z,59.96
2023-05-19T08:31:06.492Z,57.92
2023-05-19T08:33:32.629Z,57.29
2023-05-19T08:35:58.918Z,57.66
2023-05-19T08:38:25.771Z,57.51
2023-05-19T08:40:52.110Z,59.41
2023-05-19T08:43:18.517Z,58.46
2023-05-19T08:45:48.190Z,58.02
2023-05-19T08:48:16.644Z,56.13
2023-05-19T08:50:48.504Z,58.70
2023-05-19T08:53:32.503Z,60.10
2023-05-19T08:56:14.734Z,57.38
2023-05-19T08:58:43.029Z,60.07
2023-05-19T09:01:10.561Z,59.08
2023-05-19T09:03:37.554Z,56.93
2023-05-19T09:06:06.414Z,58.59
2023-05-19T09:08:32.889Z,58.18
2023-05-19T09:10:59.939Z,55.42
2023-05-19T09:13:26.202Z,58.37
2023-05-19T09:15:52.852Z,54.96
2023-05-19T09:18:19.019Z,56.89
2023-05-19T09:20:46.403Z,55.43
2023-05-19T09:23:16.938Z,51.42
2023-05-19T09:25:52.718Z,54.03
2023-05-19T09:28:25.070Z,52.01
2023-05-19T09:31:09.739Z,54.86
2023-05-19T09:33:44.380Z,55.10
2023-05-19T09:36:12.007Z,56.56
2023-05-19T09:38:38.687Z,51.63
2023-05-19T09:41:05.930Z,51.05
2023-05-19T09:43:33.625Z,53.39
2023-05-19T09:46:02.524Z,52.73
2023-05-19T09:48:29.556Z,53.45
2023-05-19T09:50:57.221Z,52.54
2023-05-19T09:53:24.541Z,52.79
2023-05-19T09:55:54.806Z,53.19
2023-05-19T09:58:21.292Z,54.26
2023-05-19T10:00:47.796Z,53.10
2023-05-19T10:03:14.092Z,52.90
2023-05-19T10:05:41.294Z,52.92
2023-05-19T10:08:09.532Z,53.19
2023-05-19T10:10:37.555Z,53.91
2023-05-19T10:13:05.135Z,53.00
2023-05-19T10:15:33.170Z,50.65
2023-05-19T10:18:02.681Z,51.93
2023-05-19T10:20:28.864Z,52.85
2023-05-19T10:22:55.057Z,51.54
2023-05-19T10:25:21.196Z,51.56
2023-05-19T10:28:00.671Z,51.04
2023-05-19T10:30:29.283Z,51.23
2023-05-19T10:32:56.723Z,50.71
2023-05-19T10:35:39.761Z,51.68
2023-05-19T10:38:20.919Z,51.20
2023-05-19T10:41:00.612Z,50.70
2023-05-19T10:43:49.065Z,49.90
2023-05-19T10:46:15.334Z,48.88
2023-05-19T10:48:45.855Z,48.76
2023-05-19T10:51:14.254Z,48.59
2023-05-19T10:53:45.478Z,48.80
2023-05-19T10:56:28.615Z,49.99
2023-05-19T10:58:54.760Z,48.84
2023-05-19T11:01:23.940Z,49.44
2023-05-19T11:03:56.726Z,47.70
2023-05-19T11:06:27.091Z,45.81
2023-05-19T11:09:14.569Z,46.38
2023-05-19T11:11:47.600Z,47.98
2023-05-19T11:14:28.130Z,44.40
2023-05-19T11:16:57.437Z,44.11
2023-05-19T11:19:31.878Z,43.97
2023-05-19T11:22:11.835Z,43.79
2023-05-19T11:24:45.479Z,45.57
2023-05-19T11:27:24.158Z,43.70
2023-05-19T11:29:51.242Z,43.92
2023-05-19T11:32:19.427Z,44.08
2023-05-19T11:34:47.608Z,45.47
2023-05-19T11:37:13.744Z,43.40
2023-05-19T11:39:40.351Z,44.47
2023-05-19T11:42:10.063Z,44.77
2023-05-19T11:44:37.682Z,43.13
2023-05-19T11:47:04.742Z,43.14
2023-05-19T11:49:30.906Z,42.90
2023-05-19T11:51:57.222Z,42.12
2023-05-19T11:54:32.444Z,42.43
2023-05-19T11:57:03.106Z,42.12
2023-05-19T11:59:35.600Z,40.27
2023-05-19T12:02:11.791Z,41.36
2023-05-19T12:04:37.988Z,41.21
2023-05-19T12:07:04.225Z,39.93
2023-05-19T12:09:30.344Z,39.24
2023-05-19T12:11:56.539Z,41.51
2023-05-19T12:14:22.659Z,40.48
2023-05-19T12:16:48.858Z,40.83
2023-05-19T12:19:15.139Z,42.32
2023-05-19T12:21:41.483Z,39.55
2023-05-19T12:24:07.920Z,42.50
2023-05-19T12:26:35.269Z,42.18
2023-05-19T12:29:01.402Z,41.16
2023-05-19T12:31:27.621Z,40.15
2023-05-19T12:33:55.047Z,41.72
2023-05-19T12:36:23.207Z,40.50
2023-05-19T12:38:53.421Z,43.71
2023-05-19T12:41:19.583Z,43.83
2023-05-19T12:43:45.693Z,44.03
2023-05-19T12:46:12.742Z,43.44
2023-05-19T12:48:43.512Z,42.88
2023-05-19T12:51:10.390Z,41.69
2023-05-19T12:53:37.267Z,42.63
2023-05-19T12:56:13.420Z,43.94
2023-05-19T12:58:40.777Z,41.16
2023-05-19T13:01:08.025Z,43.02
2023-05-19T13:03:40.067Z,42.42
2023-05-19T13:06:06.495Z,42.62
2023-05-19T13:08:33.086Z,42.55
2023-05-19T13:10:59.186Z,42.15
2023-05-19T13:13:25.401Z,40.67
2023-05-19T13:15:51.587Z,41.05
2023-05-19T13:18:17.877Z,42.08
2023-05-19T13:20:44.642Z,42.72
2023-05-19T13:23:11.381Z,43.49
2023-05-19T13:25:37.682Z,43.65
2023-05-19T13:28:07.322Z,44.17
2023-05-19T13:30:38.373Z,45.28
2023-05-19T13:33:04.660Z,43.67
2023-05-19T13:35:36.444Z,45.63
2023-05-19T13:38:07.426Z,43.91
2023-05-19T13:40:34.128Z,43.62
2023-05-19T13:43:01.437Z,44.23
2023-05-19T13:45:28.009Z,43.70
2023-05-19T13:47:54.331Z,43.97
2023-05-19T13:50:20.900Z,44.81
2023-05-19T13:52:47.324Z,43.16
2023-05-19T13:55:13.460Z,44.27
2023-05-19T13:57:41.554Z,43.42
2023-05-19T14:00:09.993Z,43.52
2023-05-19T14:02:37.370Z,43.16
2023-05-19T14:05:04.008Z,44.12
2023-05-19T14:07:30.497Z,44.78
2023-05-19T14:09:56.712Z,44.97
2023-05-19T14:12:25.574Z,45.64
2023-05-19T14:15:01.220Z,45.16
2023-05-19T14:17:27.856Z,44.12
2023-05-19T14:19:54.052Z,44.00
2023-05-19T14:22:20.180Z,44.37
2023-05-19T14:24:46.420Z,43.98
2023-05-19T14:27:12.581Z,42.41
2023-05-19T14:29:38.686Z,44.96
2023-05-19T14:32:05.321Z,43.27
2023-05-19T14:34:31.503Z,43.30
2023-05-19T14:36:58.340Z,42.91
2023-05-19T14:39:24.470Z,43.12
2023-05-19T14:41:52.195Z,44.16
2023-05-19T14:44:18.334Z,44.86
2023-05-19T14:46:44.540Z,44.53
2023-05-19T14:49:11.030Z,43.93
2023-05-19T14:51:37.132Z,43.95
2023-05-19T14:54:03.321Z,44.50
2023-05-19T14:56:29.602Z,44.56
2023-05-19T14:58:55.812Z,44.95
2023-05-19T15:01:22.057Z,45.54
2023-05-19T15:03:48.272Z,45.29
2023-05-19T15:06:14.450Z,45.79
2023-05-19T15:08:40.832Z,45.57
2023-05-19T15:11:07.337Z,44.04
2023-05-19T15:13:33.573Z,43.79
2023-05-19T15:16:15.502Z,43.81
2023-05-19T15:18:42.231Z,43.88
2023-05-19T15:21:08.549Z,43.48
2023-05-19T15:23:34.711Z,44.31
2023-05-19T15:26:00.863Z,45.00
2023-05-19T15:28:26.997Z,46.37
2023-05-19T15:30:53.209Z,46.78
2023-05-19T15:33:19.345Z,47.02
2023-05-19T15:35:46.994Z,47.25
2023-05-19T15:38:13.122Z,47.53
2023-05-19T15:40:41.063Z,47.61
2023-05-19T15:43:07.187Z,46.00
2023-05-19T15:45:33.308Z,46.31
2023-05-19T15:47:59.433Z,46.37
2023-05-19T15:50:26.048Z,46.59
2023-05-19T15:52:52.296Z,47.13
2023-05-19T15:55:18.511Z,46.85
2023-05-19T15:57:44.839Z,47.03
2023-05-19T16:00:11.727Z,47.27
2023-05-19T16:02:37.926Z,47.19
2023-05-19T16:05:04.388Z,48.38
2023-05-19T16:07:30.532Z,48.58
2023-05-19T16:09:56.825Z,48.60
2023-05-19T16:12:23.916Z,48.27
2023-05-19T16:14:50.180Z,47.99
2023-05-19T16:17:17.379Z,48.21
2023-05-19T16:19:43.550Z,49.89
2023-05-19T16:22:09.850Z,50.00
2023-05-19T16:24:35.960Z,48.70
2023-05-19T16:27:02.177Z,49.20
2023-05-19T16:29:28.273Z,49.99
2023-05-19T16:31:54.519Z,49.15
2023-05-19T16:34:20.714Z,49.26
2023-05-19T16:36:46.835Z,48.61
2023-05-19T16:39:13.015Z,49.02
2023-05-19T16:41:39.156Z,49.21
2023-05-19T16:44:05.315Z,48.93
2023-05-19T16:46:31.751Z,48.35
2023-05-19T16:48:58.018Z,48.23
2023-05-19T16:51:24.141Z,48.68
2023-05-19T16:53:50.349Z,48.32
2023-05-19T16:56:16.462Z,48.55
2023-05-19T16:58:42.597Z,47.95
2023-05-19T17:01:09.832Z,46.55
2023-05-19T17:03:36.041Z,47.55
2023-05-19T17:06:02.237Z,46.62
2023-05-19T17:08:28.414Z,46.72
2023-05-19T17:10:55.006Z,46.01
2023-05-19T17:13:21.196Z,46.43
2023-05-19T17:15:51.765Z,46.10
2023-05-19T17:18:18.414Z,45.77
2023-05-19T17:20:44.661Z,46.03
2023-05-19T17:23:10.849Z,44.47
2023-05-19T17:25:36.994Z,45.41
2023-05-19T17:28:03.308Z,45.51
2023-05-19T17:30:29.471Z,45.03
2023-05-19T17:32:58.262Z,44.92
2023-05-19T17:35:25.218Z,45.80
2023-05-19T17:37:52.543Z,45.18
2023-05-19T17:40:18.682Z,45.94
2023-05-19T17:42:44.873Z,46.29
2023-05-19T17:45:11.798Z,46.00
2023-05-19T17:47:38.047Z,45.85
2023-05-19T17:50:04.657Z,45.61
2023-05-19T17:52:32.189Z,45.92
2023-05-19T17:54:58.523Z,45.90
2023-05-19T17:57:25.807Z,46.52
2023-05-19T17:59:52.265Z,46.10
2023-05-19T18:02:18.689Z,45.63
2023-05-19T18:04:45.223Z,45.92
2023-05-19T18:07:12.699Z,45.30
2023-05-19T18:09:44.589Z,46.20
2023-05-19T18:12:10.813Z,46.08
2023-05-19T18:14:36.905Z,46.20
2023-05-19T18:17:03.160Z,46.76
2023-05-19T18:19:29.493Z,47.48
2023-05-19T18:21:55.763Z,46.26
2023-05-19T18:24:21.939Z,46.28
2023-05-19T18:26:48.172Z,45.40
2023-05-19T18:29:14.298Z,45.99
2023-05-19T18:31:40.997Z,45.88
2023-05-19T18:34:07.151Z,45.91
2023-05-19T18:36:34.912Z,45.71
2023-05-19T18:39:01.350Z,46.44
2023-05-19T18:41:27.601Z,45.98
2023-05-19T18:43:53.961Z,47.40
2023-05-19T18:46:20.199Z,46.68
2023-05-19T18:48:46.635Z,45.23
2023-05-19T18:51:15.017Z,45.25
2023-05-19T18:53:41.104Z,45.48
2023-05-19T18:56:10.867Z,45.81
2023-05-19T18:58:37.029Z,45.48
2023-05-19T19:01:04.409Z,45.71
2023-05-19T19:03:30.764Z,45.50
2023-05-19T19:05:58.131Z,45.79
2023-05-19T19:08:24.420Z,46.22
2023-05-19T19:10:51.086Z,46.52
2023-05-19T19:13:17.659Z,45.73
2023-05-19T19:15:44.298Z,45.42
2023-05-19T19:18:11.298Z,46.00
2023-05-19T19:20:37.545Z,47.19
2023-05-19T19:23:05.829Z,46.15
2023-05-19T19:25:32.635Z,46.78
2023-05-19T19:27:58.755Z,46.51
2023-05-19T19:30:26.488Z,46.94
2023-05-19T19:32:54.174Z,46.76
2023-05-19T19:35:20.335Z,46.54
2023-05-19T19:37:46.434Z,46.43
2023-05-19T19:40:12.841Z,46.62
2023-05-19T19:42:39.662Z,47.50
2023-05-19T19:45:06.432Z,47.06
2023-05-19T19:47:32.723Z,47.28
2023-05-19T19:50:00.354Z,47.25
2023-05-19T19:52:26.435Z,47.84
2023-05-19T19:54:52.547Z,47.77
2023-05-19T19:57:18.728Z,48.47
2023-05-19T19:59:44.940Z,48.33
2023-05-19T20:02:11.208Z,48.57
2023-05-19T20:04:37.697Z,48.70
2023-05-19T20:07:04.808Z,48.82
2023-05-19T20:09:30.958Z,48.93
2023-05-19T20:11:57.063Z,49.22
2023-05-19T20:14:23.313Z,49.53
2023-05-19T20:16:49.414Z,49.72
2023-05-19T20:19:15.720Z,49.92
2023-05-19T20:21:41.900Z,50.19
2023-05-19T20:24:08.044Z,50.63
2023-05-19T20:26:34.164Z,51.03
2023-05-19T20:29:00.444Z,50.94
2023-05-19T20:31:26.617Z,51.14
2023-05-19T20:33:52.802Z,53.34
2023-05-19T20:36:19.082Z,54.44
2023-05-19T20:38:47.132Z,55.11
2023-05-19T20:41:14.044Z,54.57
2023-05-19T20:43:40.192Z,55.94
2023-05-19T20:46:06.595Z,57.29
2023-05-19T20:48:32.922Z,57.97
2023-05-19T20:50:59.060Z,58.81
2023-05-19T20:53:25.364Z,58.09
2023-05-19T20:55:51.563Z,59.38
2023-05-19T20:58:17.705Z,60.98
2023-05-19T21:00:43.868Z,62.98
2023-05-19T21:03:10.824Z,60.84
2023-05-19T21:05:36.979Z,66.40
2023-05-19T21:08:03.177Z,71.41
2023-05-19T21:10:29.276Z,66.39
2023-05-19T21:12:57.706Z,67.12
2023-05-19T21:15:24.035Z,66.24
2023-05-19T21:17:50.242Z,67.17
2023-05-19T21:20:16.347Z,67.44
2023-05-19T21:22:42.466Z,73.28
2023-05-19T21:25:08.766Z,75.87
2023-05-19T21:27:35.608Z,72.11
2023-05-19T21:30:01.804Z,76.22
2023-05-19T21:32:28.937Z,72.92
2023-05-19T21:34:55.052Z,75.09
2023-05-19T21:37:21.349Z,70.89
2023-05-19T21:39:48.027Z,70.14
2023-05-19T21:42:14.142Z,67.86
2023-05-19T21:44:40.464Z,67.13
2023-05-19T21:47:06.583Z,65.53
2023-05-19T21:49:32.692Z,64.82
2023-05-19T21:51:58.793Z,65.30
2023-05-19T21:54:25.007Z,66.88
2023-05-19T21:56:51.110Z,65.66
2023-05-19T21:59:17.215Z,66.03
2023-05-19T22:01:43.506Z,65.99
2023-05-19T22:04:09.932Z,65.35
2023-05-19T22:06:36.187Z,64.95
2023-05-19T22:09:02.439Z,64.90
2023-05-19T22:11:28.777Z,65.21
2023-05-19T22:13:55.145Z,65.96
2023-05-19T22:16:21.429Z,65.49
2023-05-19T22:18:47.604Z,66.16
2023-05-19T22:21:13.816Z,66.72
2023-05-19T22:23:40.088Z,69.40
2023-05-19T22:26:06.470Z,69.40
2023-05-19T22:28:32.576Z,71.17
2023-05-19T22:30:58.680Z,78.47
2023-05-19T22:33:24.849Z,76.74
2023-05-19T22:35:51.120Z,77.70
2023-05-19T22:38:17.247Z,78.93
2023-05-19T22:40:43.423Z,80.14
2023-05-19T22:43:09.644Z,77.27
2023-05-19T22:45:35.991Z,76.27
2023-05-19T22:48:02.468Z,74.28
2023-05-19T22:50:28.805Z,72.75
2023-05-19T22:52:54.993Z,87.49
2023-05-19T22:55:22.535Z,87.95
2023-05-19T22:57:48.714Z,82.30
2023-05-19T23:00:17.802Z,93.15
2023-05-19T23:02:44.195Z,87.57
2023-05-19T23:05:10.475Z,93.71
2023-05-19T23:07:36.606Z,88.84
2023-05-19T23:10:05.201Z,82.60
2023-05-19T23:12:31.364Z,90.09
2023-05-19T23:14:57.602Z,90.90
2023-05-19T23:17:23.790Z,93.09
2023-05-19T23:19:49.978Z,86.39
2023-05-19T23:22:16.561Z,95.57
2023-05-19T23:24:42.664Z,93.39
2023-05-19T23:27:08.750Z,87.17
2023-05-19T23:29:35.131Z,87.90
2023-05-19T23:32:01.272Z,85.84
2023-05-19T23:34:27.381Z,90.60
2023-05-19T23:36:53.981Z,89.50
2023-05-19T23:39:21.294Z,87.03
2023-05-19T23:41:47.449Z,88.20
2023-05-19T23:44:13.610Z,85.08
2023-05-19T23:46:39.873Z,82.97
2023-05-19T23:49:05.982Z,89.42
2023-05-19T23:51:32.103Z,85.28
2023-05-19T23:53:58.271Z,84.46
2023-05-19T23:56:24.419Z,89.73
2023-05-19T23:58:50.873Z,85.94
